Flight Track Log - Related Links

Times and Time Zones

All times are in EDT time to prevent confusion due to time zone crossing. See the LOF3376 flight status page for this flight to view local times or setup timezone preferences in your user account.

Time Position Orientation Groundspeed Altitude Reporting Facility
EDT Latitude Longitude Course Direction KTS MPH feet Rate Location/Type
Wed 05:59:22 AM 42.8467 -85.5347 248° West 191 220 2,500  Level Chicago Center
Wed 06:00:25 AM 42.8267 -85.6014 248° West 195 224 4,800 2,341 Climbing Chicago Center
Wed 06:01:00 AM 42.7847 -85.7537 249° West  Level FlightAware Approximate
Wed 06:01:25 AM 42.8028 -85.6775 247° West 211 243 7,300  Level Chicago Center
Wed 06:02:00 AM 42.7549 -85.8284 216° Southwest  Level FlightAware Approximate
Wed 06:02:25 AM 42.7767 -85.7608 247° West 230 265 9,900  Level Chicago Center
Wed 06:03:00 AM 42.7281 -85.9065 248° West  Level FlightAware Approximate
Wed 06:03:26 AM 42.7492 -85.8475 247° West 243 280 12,300  Level Chicago Center
Wed 06:04:00 AM 42.7038 -85.9874 248° West  Level FlightAware Approximate
Wed 06:04:26 AM 42.7206 -85.9417 248° West 259 298 13,900  Level Chicago Center
Wed 06:05:27 AM 42.6878 -86.0486 247° West 298 343 15,400 1,091 Climbing Chicago Center
Wed 06:06:27 AM 42.6650 -86.1658 255° West 318 366 16,100 347 Climbing Chicago Center
Wed 06:07:28 AM 42.6433 -86.2872 256° West 327 376 16,100  Level Chicago Center
Wed 06:08:28 AM 42.6203 -86.4061 255° West 327 376 16,100  Level Chicago Center
Wed 06:09:28 AM 42.5975 -86.5278 256° West 331 381 16,100 -99 Level Chicago Center
Wed 06:10:29 AM 42.5739 -86.6475 255° West 330 380 15,900 -793 Descending Chicago Center
Wed 06:11:29 AM 42.5511 -86.7669 256° West 329 379 14,500 -1,438 Descending Chicago Center
Wed 06:12:30 AM 42.5214 -86.8731 249° West 306 352 13,000 -1,488 Descending Chicago Center
Wed 06:13:30 AM 42.4914 -86.9800 249° West 304 350 11,500 -992 Descending Chicago Center
Wed 06:14:31 AM 42.4617 -87.0889 250° West 307 353 11,000 -248 Descending Chicago Center
Wed 06:15:31 AM 42.4289 -87.2050 249° West 277 319 11,000 -496 Level Chicago Center
Wed 06:16:32 AM 42.4025 -87.2994 249° West 269 310 10,000 -992 Descending Chicago Center
Wed 06:17:32 AM 42.3775 -87.3953 251° West 270 311 9,000 -843 Descending Chicago Center
Wed 06:18:33 AM 42.3564 -87.4761 251° West 245 282 8,300 -992 Descending Chicago Center
Wed 06:19:33 AM 42.3167 -87.5383 229° Southwest 227 261 7,000 -843 Descending Chicago Center
Wed 06:20:34 AM 42.2694 -87.5922 220° Southwest 224 258 6,600 -446 Descending Chicago Center
Wed 06:21:34 AM 42.2264 -87.6417 220° Southwest 208 239 6,100 -793 Descending Chicago Center
Wed 06:22:35 AM 42.1897 -87.6836 220° Southwest 179 206 5,000 -893 Descending Chicago Center
Wed 06:23:35 AM 42.1536 -87.7236 219° Southwest 171 197 4,300 -683 Descending Chicago Center
Wed 06:24:38 AM 42.1167 -87.7667 221° Southwest 164 189 3,600 -756 Descending Chicago TRACON
Wed 06:25:50 AM 42.0667 -87.8167 217° Southwest 156 180 2,600 -818 Descending Chicago TRACON
Wed 06:26:50 AM 42.0500 -87.8500 236° Southwest 124 143 1,800 -800 Descending Chicago TRACON

Login

Don't have an account? Register now (free) for customized features, flight alerts, and more!